Time;durP1;ratioP1;P1;durP2;ratioP2;P2;SDS_P1;SDS_P2;PMS_P1;PMS_P2;Temp;Humidity;BMP_temperature;BMP_pressure;BME280_temperature;BME280_humidity;BME280_pressure;Samples;Min_cycle;Max_cycle;Signal;HPM_P1;HPM_P2
2020/12/21 00:02:18;;;;;;;17.27;11.73;;;6.40;99.90;;;;;;5060676;28;20231;-86
2020/12/21 00:04:43;;;;;;;14.47;9.20;;;6.40;99.90;;;;;;5047569;28;20601;-87
2020/12/21 00:07:09;;;;;;;14.47;10.87;;;6.40;99.90;;;;;;5076268;28;20556;-88
2020/12/21 00:09:35;;;;;;;15.13;10.10;;;6.40;99.90;;;;;;5050123;28;20539;-86
2020/12/21 00:12:01;;;;;;;18.50;10.83;;;6.40;99.90;;;;;;5064046;28;20243;-86
2020/12/21 00:14:26;;;;;;;15.73;10.50;;;6.40;99.90;;;;;;5071976;28;21164;-85
2020/12/21 00:16:53;;;;;;;13.10;10.00;;;6.40;99.90;;;;;;5063019;28;20600;-84
2020/12/21 00:19:20;;;;;;;12.43;9.50;;;6.40;99.90;;;;;;5047057;28;20286;-89
2020/12/21 00:21:48;;;;;;;17.03;9.87;;;6.30;99.90;;;;;;5066455;28;20423;-89
2020/12/21 00:24:14;;;;;;;16.50;10.77;;;6.30;99.90;;;;;;5066570;28;20408;-88
2020/12/21 00:26:47;;;;;;;14.80;9.33;;;6.30;99.90;;;;;;5067232;28;20420;-85
2020/12/21 00:29:13;;;;;;;16.17;12.00;;;6.20;99.90;;;;;;5051655;28;20662;-85
2020/12/21 00:31:39;;;;;;;18.40;11.00;;;6.20;99.90;;;;;;5066048;28;20462;-83
2020/12/21 00:34:06;;;;;;;18.63;10.47;;;6.20;99.90;;;;;;5068965;28;20423;-85
2020/12/21 00:36:36;;;;;;;15.00;9.70;;;6.20;99.90;;;;;;5072986;28;20219;-88
2020/12/21 00:39:03;;;;;;;16.87;10.50;;;6.10;99.90;;;;;;5046234;28;20415;-85
2020/12/21 00:41:28;;;;;;;18.47;10.63;;;6.10;99.90;;;;;;5064646;28;21004;-89
2020/12/21 00:43:54;;;;;;;16.60;10.70;;;6.10;99.90;;;;;;5062042;28;20432;-86
2020/12/21 00:46:24;;;;;;;16.53;10.33;;;6.10;99.90;;;;;;5065414;28;20165;-87
2020/12/21 00:48:50;;;;;;;19.73;11.07;;;6.00;99.90;;;;;;5066414;28;20296;-89
2020/12/21 00:51:16;;;;;;;15.13;9.43;;;6.00;99.90;;;;;;5064621;28;20448;-94
2020/12/21 00:53:43;;;;;;;11.90;7.70;;;5.90;99.90;;;;;;5065596;28;20453;-94
2020/12/21 00:56:09;;;;;;;12.37;9.07;;;5.80;99.90;;;;;;5065119;28;20492;-94
2020/12/21 00:58:36;;;;;;;14.40;9.57;;;5.80;99.90;;;;;;5064984;28;20411;-94
2020/12/21 01:01:09;;;;;;;13.60;9.00;;;5.70;99.90;;;;;;5058025;28;20424;-95
2020/12/21 01:03:35;;;;;;;11.10;8.10;;;;;;;;;;5055566;28;20472;-94
2020/12/21 01:06:00;;;;;;;18.10;9.67;;;5.60;99.90;;;;;;5067624;28;20415;-95
2020/12/21 01:08:26;;;;;;;14.07;8.80;;;5.50;99.90;;;;;;5085041;28;20416;-89
2020/12/21 01:10:52;;;;;;;15.10;9.23;;;5.00;99.90;;;;;;5070313;28;20173;-90
2020/12/21 01:13:18;;;;;;;13.63;9.23;;;5.40;99.90;;;;;;5047326;28;20209;-89
2020/12/21 01:15:43;;;;;;;13.43;9.13;;;5.40;99.90;;;;;;5059853;28;20455;-89
2020/12/21 01:18:09;;;;;;;14.90;9.50;;;5.50;99.90;;;;;;5054645;28;20648;-89
2020/12/21 01:20:35;;;;;;;17.43;9.23;;;5.60;99.90;;;;;;5056759;28;20184;-85
2020/12/21 01:23:02;;;;;;;17.00;9.57;;;5.50;99.90;;;;;;5048037;28;20432;-90
2020/12/21 01:25:27;;;;;;;18.13;9.17;;;5.60;99.90;;;;;;5064010;28;20181;-88
2020/12/21 01:27:53;;;;;;;14.10;8.93;;;5.60;99.90;;;;;;5079485;28;20434;-92
2020/12/21 01:30:19;;;;;;;14.93;8.23;;;;;;;;;;5069202;28;20256;-95
2020/12/21 01:32:44;;;;;;;14.97;8.30;;;5.70;99.90;;;;;;5056888;28;20207;-94
2020/12/21 01:35:10;;;;;;;13.03;8.10;;;5.70;99.90;;;;;;5058023;28;20420;-94
2020/12/21 01:37:35;;;;;;;14.30;8.37;;;5.70;99.90;;;;;;5068626;28;20175;-94
2020/12/21 01:40:03;;;;;;;13.57;7.57;;;5.70;99.90;;;;;;5069024;28;20173;-94
2020/12/21 01:42:29;;;;;;;10.53;7.70;;;5.70;99.90;;;;;;5063380;28;20227;-93
2020/12/21 01:44:54;;;;;;;15.67;8.17;;;5.70;99.90;;;;;;5069025;28;20415;-92
2020/12/21 01:47:21;;;;;;;18.37;8.27;;;5.70;99.90;;;;;;5060384;28;20174;-93
2020/12/21 01:49:47;;;;;;;14.23;8.10;;;5.80;99.90;;;;;;5063846;28;20194;-90
2020/12/21 01:52:17;;;;;;;10.33;6.67;;;5.80;99.90;;;;;;5058208;28;20826;-91
2020/12/21 01:54:49;;;;;;;16.83;8.30;;;5.90;99.90;;;;;;5063601;28;20416;-92
2020/12/21 01:57:15;;;;;;;9.30;5.60;;;5.90;99.90;;;;;;5072772;28;20423;-92
2020/12/21 01:59:41;;;;;;;17.23;7.40;;;5.90;99.90;;;;;;5067857;28;20840;-94
2020/12/21 02:02:08;;;;;;;16.77;7.37;;;5.90;99.90;;;;;;5082372;28;20480;-92
2020/12/21 02:04:33;;;;;;;16.77;8.60;;;5.90;99.90;;;;;;5086779;28;20433;-88
2020/12/21 02:07:00;;;;;;;16.40;6.87;;;5.90;99.90;;;;;;5041675;28;20511;-92
2020/12/21 02:09:27;;;;;;;11.43;5.47;;;5.90;99.90;;;;;;5060230;28;20255;-93
2020/12/21 02:11:54;;;;;;;13.93;7.70;;;6.00;99.90;;;;;;5050373;28;20471;-89
2020/12/21 02:14:19;;;;;;;16.03;8.83;;;6.00;99.90;;;;;;5042527;28;20408;-89
2020/12/21 02:16:45;;;;;;;13.50;7.87;;;6.10;99.90;;;;;;5066296;28;20801;-89
2020/12/21 02:19:11;;;;;;;14.53;7.93;;;6.20;99.90;;;;;;5064327;28;20173;-90
2020/12/21 02:21:37;;;;;;;13.80;7.13;;;6.30;99.90;;;;;;5065220;28;20176;-90
2020/12/21 02:24:03;;;;;;;15.50;8.87;;;;;;;;;;5061119;28;20422;-93
2020/12/21 02:26:28;;;;;;;13.53;8.87;;;6.50;99.90;;;;;;5063597;28;20641;-90
2020/12/21 02:28:56;;;;;;;16.13;8.27;;;6.60;99.90;;;;;;5074296;28;20425;-89
2020/12/21 02:31:21;;;;;;;13.80;8.60;;;6.60;99.90;;;;;;5072045;28;20555;-93
2020/12/21 02:33:47;;;;;;;11.93;7.37;;;6.70;99.90;;;;;;5062448;28;20427;-86
2020/12/21 02:36:13;;;;;;;15.10;10.77;;;6.80;99.90;;;;;;5076887;28;20181;-90
2020/12/21 02:38:40;;;;;;;17.13;10.60;;;6.90;99.90;;;;;;5064724;28;20427;-89
2020/12/21 02:41:06;;;;;;;13.37;8.10;;;6.90;99.90;;;;;;5058492;28;20785;-92
2020/12/21 02:43:32;;;;;;;15.80;8.20;;;7.00;99.90;;;;;;5070254;28;20419;-89
2020/12/21 02:45:58;;;;;;;17.00;9.03;;;7.00;99.90;;;;;;5065994;28;20422;-92
2020/12/21 02:48:24;;;;;;;14.03;7.27;;;;;;;;;;5048925;28;20330;-92
2020/12/21 02:50:49;;;;;;;11.60;6.90;;;7.10;99.90;;;;;;5069820;28;20478;-94
2020/12/21 02:53:16;;;;;;;10.70;6.40;;;7.10;99.90;;;;;;5062471;28;20548;-90
2020/12/21 02:55:43;;;;;;;13.53;7.27;;;7.10;99.90;;;;;;5066266;28;20173;-92
2020/12/21 02:58:08;;;;;;;13.17;8.17;;;7.10;99.90;;;;;;5071361;28;20537;-91
2020/12/21 03:00:34;;;;;;;10.40;7.00;;;7.20;99.90;;;;;;5057132;28;20829;-93
2020/12/21 03:03:01;;;;;;;16.50;7.83;;;7.20;99.90;;;;;;5080213;28;20227;-95
2020/12/21 03:05:27;;;;;;;14.37;7.17;;;7.20;99.90;;;;;;5070310;28;20408;-84
2020/12/21 03:07:52;;;;;;;11.37;6.80;;;7.10;99.90;;;;;;5080521;28;20407;-91
2020/12/21 03:10:18;;;;;;;14.60;7.20;;;7.00;99.90;;;;;;5067781;28;20431;-88
2020/12/21 03:12:44;;;;;;;9.80;6.20;;;7.00;99.90;;;;;;5065803;28;20220;-89
2020/12/21 03:15:09;;;;;;;10.60;6.73;;;7.00;99.90;;;;;;5069051;28;20174;-89
2020/12/21 03:17:35;;;;;;;10.43;7.10;;;6.90;99.90;;;;;;5059373;28;20229;-91
2020/12/21 03:20:00;;;;;;;11.50;6.50;;;6.80;99.90;;;;;;5067029;28;20697;-90
2020/12/21 03:22:26;;;;;;;12.03;6.07;;;6.80;99.90;;;;;;5057092;28;20170;-93
2020/12/21 03:24:52;;;;;;;14.00;6.90;;;6.80;99.90;;;;;;5057502;28;20161;-94
2020/12/21 03:27:17;;;;;;;14.37;7.43;;;6.70;99.90;;;;;;5057383;28;20231;-93
2020/12/21 03:29:43;;;;;;;15.40;7.10;;;6.70;99.90;;;;;;5058609;28;20174;-93
2020/12/21 03:32:09;;;;;;;8.97;6.50;;;6.60;99.90;;;;;;5059798;28;20208;-95
2020/12/21 03:34:35;;;;;;;13.90;6.20;;;6.60;99.90;;;;;;5079349;28;20404;-94
2020/12/21 03:37:00;;;;;;;11.10;6.57;;;6.60;99.90;;;;;;5079121;28;20419;-93
2020/12/21 03:39:26;;;;;;;9.70;6.07;;;6.60;99.90;;;;;;5080960;28;20165;-91
2020/12/21 03:41:52;;;;;;;15.90;7.33;;;6.60;99.90;;;;;;5080357;28;20207;-94
2020/12/21 03:44:17;;;;;;;11.03;6.87;;;6.60;99.90;;;;;;5084669;28;20177;-94
2020/12/21 03:46:43;;;;;;;13.30;6.90;;;6.60;99.90;;;;;;5085171;28;20219;-94
2020/12/21 03:49:09;;;;;;;15.50;6.90;;;6.70;99.90;;;;;;5081844;28;20185;-94
2020/12/21 03:51:34;;;;;;;14.53;6.77;;;6.60;99.90;;;;;;5079124;28;20641;-93
2020/12/21 03:54:00;;;;;;;12.50;7.17;;;6.60;99.90;;;;;;5080864;28;20564;-94
2020/12/21 03:56:25;;;;;;;11.97;6.53;;;6.60;99.90;;;;;;5082737;28;20191;-93
2020/12/21 03:58:51;;;;;;;12.07;6.77;;;6.60;99.90;;;;;;5081902;28;20195;-92
2020/12/21 04:01:16;;;;;;;13.00;6.67;;;6.60;99.90;;;;;;5084555;28;20169;-93
2020/12/21 04:03:42;;;;;;;14.43;7.47;;;6.60;99.90;;;;;;5083230;28;20177;-93
2020/12/21 04:06:08;;;;;;;18.33;8.00;;;6.70;99.90;;;;;;5076479;28;20224;-92
2020/12/21 04:08:33;;;;;;;14.83;6.37;;;6.70;99.90;;;;;;5058856;28;20185;-94
2020/12/21 04:11:00;;;;;;;14.13;6.10;;;6.80;99.90;;;;;;5076501;28;20171;-93
2020/12/21 04:13:26;;;;;;;14.13;6.43;;;6.80;99.90;;;;;;5076658;28;20262;-93
2020/12/21 04:15:52;;;;;;;11.93;6.27;;;6.80;99.90;;;;;;5075243;28;20524;-93
2020/12/21 04:18:18;;;;;;;14.60;7.13;;;6.80;99.90;;;;;;5076371;28;20415;-93
2020/12/21 04:20:44;;;;;;;14.03;6.50;;;6.90;99.90;;;;;;5076220;28;20410;-92
2020/12/21 04:23:09;;;;;;;18.03;8.20;;;7.00;99.90;;;;;;5076270;28;20613;-92
2020/12/21 04:25:35;;;;;;;12.67;6.73;;;7.00;99.90;;;;;;5075209;28;20566;-92
2020/12/21 04:28:00;;;;;;;13.30;7.30;;;7.10;99.90;;;;;;5076331;28;20165;-92
2020/12/21 04:30:26;;;;;;;14.13;6.80;;;7.10;99.90;;;;;;5076446;28;20173;-92
2020/12/21 04:32:51;;;;;;;11.63;5.73;;;7.20;99.90;;;;;;5076310;28;20282;-92
2020/12/21 04:35:17;;;;;;;11.33;6.70;;;7.20;99.90;;;;;;5075674;28;20191;-85
2020/12/21 04:37:43;;;;;;;11.03;6.47;;;7.30;99.90;;;;;;5057317;28;20176;-84
2020/12/21 04:40:08;;;;;;;12.97;5.23;;;7.40;99.90;;;;;;5075094;28;20176;-88
2020/12/21 04:42:46;;;;;;;14.60;7.20;;;7.50;99.90;;;;;;5073799;28;20177;-86
2020/12/21 04:45:12;;;;;;;14.20;7.10;;;7.50;99.90;;;;;;5057463;28;20599;-85
2020/12/21 04:47:38;;;;;;;10.30;5.50;;;7.50;99.90;;;;;;5075088;28;20419;-88
2020/12/21 04:50:03;;;;;;;8.97;5.37;;;7.60;99.90;;;;;;5074727;28;20337;-86
2020/12/21 04:52:30;;;;;;;14.70;6.70;;;7.60;99.90;;;;;;5074862;28;21029;-85
2020/12/21 04:54:56;;;;;;;11.30;6.80;;;7.70;99.90;;;;;;5074847;28;20196;-87
2020/12/21 04:57:21;;;;;;;12.93;7.40;;;7.70;99.90;;;;;;5075091;28;20899;-90
2020/12/21 04:59:47;;;;;;;13.60;5.70;;;7.70;99.90;;;;;;5082692;28;20530;-84
2020/12/21 05:02:12;;;;;;;15.20;6.43;;;7.80;99.90;;;;;;5085353;28;20188;-84
2020/12/21 05:04:38;;;;;;;9.90;6.97;;;7.80;99.90;;;;;;5079289;28;20180;-86
2020/12/21 05:07:03;;;;;;;11.03;6.13;;;7.80;99.90;;;;;;5072024;28;20267;-88
2020/12/21 05:09:29;;;;;;;10.60;5.63;;;7.90;99.90;;;;;;5054870;28;20263;-85
2020/12/21 05:12:03;;;;;;;12.67;5.93;;;7.90;99.90;;;;;;5054159;28;20240;-86
2020/12/21 05:14:34;;;;;;;9.90;5.53;;;7.90;99.90;;;;;;5074667;28;20683;-87
2020/12/21 05:17:16;;;;;;;13.03;7.03;;;7.90;99.90;;;;;;5056553;28;20467;-87
2020/12/21 05:19:43;;;;;;;9.20;5.53;;;7.90;99.90;;;;;;5056635;28;20573;-88
2020/12/21 05:22:16;;;;;;;12.33;5.23;;;7.90;99.90;;;;;;5074126;28;20414;-89
2020/12/21 05:24:42;;;;;;;14.17;7.00;;;8.00;99.90;;;;;;5073935;28;20504;-86
2020/12/21 05:27:10;;;;;;;10.00;5.90;;;8.00;99.90;;;;;;5056514;28;20403;-89
2020/12/21 05:29:36;;;;;;;11.90;6.23;;;8.00;99.90;;;;;;5074185;28;20415;-85
2020/12/21 05:32:02;;;;;;;10.77;5.30;;;8.00;99.90;;;;;;5074149;28;20475;-83
2020/12/21 05:34:28;;;;;;;11.20;6.57;;;8.00;99.90;;;;;;5056440;28;20595;-87
2020/12/21 05:36:54;;;;;;;10.30;7.30;;;8.00;99.90;;;;;;5073771;28;20915;-88
2020/12/21 05:39:20;;;;;;;10.93;5.47;;;8.10;99.90;;;;;;5074215;28;20418;-87
2020/12/21 05:41:46;;;;;;;9.53;5.60;;;8.10;99.90;;;;;;5073926;28;20172;-89
2020/12/21 05:44:12;;;;;;;12.60;5.90;;;8.10;99.90;;;;;;5073893;28;20922;-88
2020/12/21 05:46:37;;;;;;;8.50;4.87;;;8.10;99.90;;;;;;5056103;28;20630;-85
2020/12/21 05:49:04;;;;;;;13.13;5.97;;;8.10;99.90;;;;;;5073818;28;20529;-89
2020/12/21 05:51:31;;;;;;;11.00;6.10;;;8.20;99.90;;;;;;5073573;28;20200;-89
2020/12/21 05:54:02;;;;;;;11.53;5.27;;;8.20;99.90;;;;;;5073993;28;20430;-89
2020/12/21 05:56:29;;;;;;;10.80;5.90;;;8.10;99.90;;;;;;5074129;28;20424;-91
2020/12/21 05:58:56;;;;;;;11.63;5.90;;;8.20;99.90;;;;;;5053792;28;20424;-85
2020/12/21 06:01:23;;;;;;;11.80;5.40;;;8.20;99.90;;;;;;5054310;28;20759;-87
2020/12/21 06:03:53;;;;;;;8.10;4.50;;;8.20;99.90;;;;;;5053578;28;20502;-81
2020/12/21 06:06:20;;;;;;;11.90;6.10;;;8.20;99.90;;;;;;5052830;28;20878;-81
2020/12/21 06:08:51;;;;;;;8.93;5.13;;;8.20;99.90;;;;;;5053119;28;20412;-82
2020/12/21 06:11:21;;;;;;;12.70;5.10;;;8.20;99.90;;;;;;5052944;28;20421;-82
2020/12/21 06:13:54;;;;;;;9.60;5.30;;;8.20;99.90;;;;;;5052934;28;20482;-82
2020/12/21 06:16:20;;;;;;;12.20;6.03;;;8.20;99.90;;;;;;5053271;28;20861;-84
2020/12/21 06:19:23;;;;;;;9.07;6.50;;;8.20;99.90;;;;;;5053511;28;20422;-82
2020/12/21 06:21:53;;;;;;;11.67;5.10;;;8.20;99.90;;;;;;5042848;28;20558;-82
2020/12/21 06:24:19;;;;;;;12.20;5.10;;;8.20;99.90;;;;;;5052945;28;20416;-82
2020/12/21 06:26:46;;;;;;;8.63;5.20;;;8.20;99.90;;;;;;5052826;28;20405;-83
2020/12/21 06:29:15;;;;;;;11.00;5.70;;;8.20;99.90;;;;;;5052854;28;20408;-82
2020/12/21 06:31:49;;;;;;;10.93;5.30;;;8.20;99.90;;;;;;5052763;28;20554;-82
2020/12/21 06:34:17;;;;;;;12.40;6.10;;;8.20;99.90;;;;;;5052922;28;20762;-82
2020/12/21 06:36:44;;;;;;;11.77;5.80;;;8.10;99.90;;;;;;5054242;28;20416;-82
2020/12/21 06:39:21;;;;;;;8.47;5.57;;;8.10;99.90;;;;;;5057058;28;20408;-83
2020/12/21 06:41:46;;;;;;;7.73;4.33;;;8.20;99.90;;;;;;5056976;28;20418;-82
2020/12/21 06:44:12;;;;;;;11.00;4.73;;;8.20;99.90;;;;;;5057329;28;20420;-84
2020/12/21 06:46:38;;;;;;;11.20;4.60;;;8.20;99.90;;;;;;5057264;28;20707;-85
2020/12/21 06:49:11;;;;;;;8.70;4.40;;;8.10;99.90;;;;;;5057234;28;20215;-84
2020/12/21 06:51:43;;;;;;;7.77;4.40;;;8.10;99.90;;;;;;5056633;28;20681;-85
2020/12/21 06:54:10;;;;;;;12.00;4.93;;;8.10;99.90;;;;;;5056975;28;20412;-86
2020/12/21 06:56:39;;;;;;;14.60;5.03;;;8.10;99.90;;;;;;5056374;28;20437;-85
2020/12/21 06:59:10;;;;;;;12.30;5.80;;;8.10;99.90;;;;;;5076911;28;20438;-86
2020/12/21 07:01:37;;;;;;;10.80;4.53;;;8.10;99.90;;;;;;5059397;28;20816;-91
2020/12/21 07:04:02;;;;;;;8.60;4.50;;;8.10;99.90;;;;;;5077000;28;20452;-87
2020/12/21 07:06:28;;;;;;;7.97;4.57;;;8.10;99.90;;;;;;5076875;28;20435;-85
2020/12/21 07:08:58;;;;;;;8.70;4.70;;;8.00;99.90;;;;;;5077071;28;20264;-88
2020/12/21 07:11:24;;;;;;;12.67;5.10;;;8.00;99.90;;;;;;5058941;28;20172;-85
2020/12/21 07:13:50;;;;;;;10.90;4.70;;;7.90;99.90;;;;;;5076686;28;20422;-84
2020/12/21 07:16:20;;;;;;;7.97;3.90;;;7.80;99.90;;;;;;5076375;28;20954;-85
2020/12/21 07:18:47;;;;;;;10.30;5.00;;;7.60;99.90;;;;;;5076570;28;20407;-82
2020/12/21 07:21:13;;;;;;;9.17;4.40;;;7.60;99.90;;;;;;5076008;28;20450;-83
2020/12/21 07:23:40;;;;;;;11.00;5.30;;;7.50;99.90;;;;;;5077493;28;20413;-88
2020/12/21 07:26:07;;;;;;;12.63;5.87;;;7.40;99.90;;;;;;5078504;28;20426;-87
2020/12/21 07:28:32;;;;;;;10.33;5.57;;;7.30;99.90;;;;;;5079520;28;20425;-93
2020/12/21 07:31:05;;;;;;;9.40;4.43;;;7.20;99.90;;;;;;5078689;28;20408;-92
2020/12/21 07:33:32;;;;;;;12.57;5.00;;;7.10;99.90;;;;;;5077963;28;20269;-89
2020/12/21 07:35:58;;;;;;;5.73;4.30;;;7.10;99.90;;;;;;5076335;28;20435;-83
2020/12/21 07:38:24;;;;;;;7.17;4.57;;;7.10;99.90;;;;;;5076174;28;20472;-86
2020/12/21 07:40:53;;;;;;;8.90;4.27;;;7.10;99.90;;;;;;5075911;28;20429;-83
2020/12/21 07:43:26;;;;;;;14.93;5.77;;;7.00;99.90;;;;;;5076415;28;20490;-85
2020/12/21 07:45:58;;;;;;;8.27;4.87;;;6.90;99.90;;;;;;5058190;28;20407;-84
2020/12/21 07:48:24;;;;;;;12.43;4.97;;;6.90;99.90;;;;;;5075657;28;20406;-87
2020/12/21 07:50:50;;;;;;;9.57;4.70;;;6.90;99.90;;;;;;5075829;28;20415;-86
2020/12/21 07:53:16;;;;;;;14.80;5.23;;;6.90;99.90;;;;;;5077737;28;20524;-86
2020/12/21 07:55:41;;;;;;;13.73;5.33;;;6.90;99.90;;;;;;5078802;28;20475;-92
2020/12/21 07:58:14;;;;;;;10.87;4.40;;;6.80;99.90;;;;;;5093675;28;20443;-85
2020/12/21 08:00:50;;;;;;;13.30;5.10;;;6.80;99.90;;;;;;5100498;28;20217;-91
2020/12/21 08:03:16;;;;;;;10.60;4.97;;;6.80;99.90;;;;;;5078789;28;20830;-94
2020/12/21 08:05:42;;;;;;;11.40;5.50;;;6.80;99.90;;;;;;5079481;28;20491;-94
2020/12/21 08:08:12;;;;;;;13.50;4.83;;;6.70;99.90;;;;;;5077374;28;20171;-94
2020/12/21 08:10:37;;;;;;;16.83;4.60;;;6.70;99.90;;;;;;5077004;28;20191;-93
2020/12/21 08:13:03;;;;;;;11.63;5.57;;;6.70;99.90;;;;;;5076571;28;20556;-93
2020/12/21 08:15:28;;;;;;;13.80;5.40;;;6.80;99.90;;;;;;5077044;28;20169;-93
2020/12/21 08:17:54;;;;;;;11.17;5.20;;;6.80;99.90;;;;;;5077023;28;20169;-90
2020/12/21 08:20:20;;;;;;;15.63;5.80;;;6.80;99.90;;;;;;5076313;28;20448;-91
2020/12/21 08:22:45;;;;;;;8.47;3.50;;;6.80;99.90;;;;;;5076633;28;20172;-91
2020/12/21 08:25:13;;;;;;;12.47;5.80;;;6.90;99.90;;;;;;5077020;28;20166;-91
2020/12/21 08:27:51;;;;;;;13.67;4.93;;;7.00;99.90;;;;;;5058763;28;20188;-91
2020/12/21 08:30:21;;;;;;;9.63;4.03;;;7.10;99.90;;;;;;5070643;28;20491;-91
2020/12/21 08:32:48;;;;;;;10.75;4.90;;;7.20;99.90;;;;;;5074692;28;20537;-92
2020/12/21 08:35:22;;;;;;;11.97;6.23;;;7.30;99.90;;;;;;5076462;28;20201;-91
2020/12/21 08:37:47;;;;;;;8.00;3.40;;;7.40;99.90;;;;;;5077083;28;20756;-91
2020/12/21 08:40:14;;;;;;;7.90;3.47;;;7.40;99.90;;;;;;5076833;28;20490;-91
2020/12/21 08:42:40;;;;;;;12.60;3.47;;;7.50;99.90;;;;;;5076121;28;20166;-91
2020/12/21 08:45:08;;;;;;;6.30;2.97;;;7.40;99.90;;;;;;5076705;28;20468;-91
2020/12/21 08:47:33;;;;;;;5.93;4.10;;;7.50;99.90;;;;;;5077337;28;20509;-92
2020/12/21 08:50:02;;;;;;;14.73;3.33;;;7.50;99.90;;;;;;5076678;28;20993;-92
2020/12/21 08:52:27;;;;;;;7.43;2.90;;;7.60;99.90;;;;;;5075213;28;20204;-92
2020/12/21 08:54:53;;;;;;;8.47;3.03;;;7.70;99.90;;;;;;5077271;28;20427;-93
2020/12/21 08:57:19;;;;;;;6.60;3.43;;;7.80;99.90;;;;;;5077159;28;20946;-92
2020/12/21 08:59:44;;;;;;;5.53;3.27;;;7.80;99.90;;;;;;5075763;28;20515;-91
2020/12/21 09:02:10;;;;;;;5.23;2.73;;;7.80;99.90;;;;;;5059655;28;20169;-93
2020/12/21 09:04:35;;;;;;;7.37;3.07;;;8.00;99.90;;;;;;5059002;28;20169;-93
2020/12/21 09:07:01;;;;;;;6.30;3.60;;;8.10;99.90;;;;;;5076571;28;20174;-93
2020/12/21 09:09:26;;;;;;;8.40;2.40;;;8.20;99.90;;;;;;5076285;28;20164;-93
2020/12/21 09:11:53;;;;;;;5.33;3.30;;;8.20;99.90;;;;;;5075817;28;20672;-92
2020/12/21 09:14:24;;;;;;;10.73;3.07;;;8.20;99.90;;;;;;5076359;28;20173;-92
2020/12/21 09:16:50;;;;;;;7.13;2.57;;;8.30;99.90;;;;;;5076635;28;20475;-92
2020/12/21 09:19:15;;;;;;;10.03;3.67;;;8.40;99.90;;;;;;5074886;28;20415;-92
2020/12/21 09:21:41;;;;;;;6.50;2.53;;;8.50;99.90;;;;;;5075917;28;20506;-91
2020/12/21 09:24:07;;;;;;;13.47;2.90;;;8.50;99.90;;;;;;5058304;28;20169;-91
2020/12/21 09:26:32;;;;;;;5.83;1.50;;;8.70;99.90;;;;;;5076192;28;20411;-92
2020/12/21 09:28:58;;;;;;;5.10;2.40;;;8.80;99.90;;;;;;5075809;28;20197;-93
2020/12/21 09:31:24;;;;;;;4.47;2.10;;;8.90;99.90;;;;;;5074874;28;20179;-91
2020/12/21 09:33:51;;;;;;;8.33;3.23;;;9.10;99.90;;;;;;5076430;28;20172;-92
2020/12/21 09:36:18;;;;;;;8.87;3.80;;;9.20;99.90;;;;;;5061616;28;20639;-93
2020/12/21 09:38:45;;;;;;;7.33;2.30;;;9.20;99.90;;;;;;5064449;28;20436;-92
2020/12/21 09:41:19;;;;;;;6.23;1.83;;;9.30;99.90;;;;;;5056217;28;20400;-92
2020/12/21 09:43:47;;;;;;;5.37;1.90;;;9.40;99.90;;;;;;5075295;28;20427;-89
2020/12/21 09:46:20;;;;;;;4.60;1.67;;;9.50;99.90;;;;;;5079182;28;20929;-84
2020/12/21 09:48:47;;;;;;;8.87;2.30;;;9.30;99.90;;;;;;5063890;28;20413;-85
2020/12/21 09:51:13;;;;;;;6.57;2.40;;;9.20;99.90;;;;;;5060129;28;20436;-85
2020/12/21 09:53:39;;;;;;;8.93;3.00;;;9.20;99.90;;;;;;5065115;28;20437;-84
2020/12/21 09:56:07;;;;;;;6.53;2.13;;;9.10;99.90;;;;;;5046032;28;20182;-84
2020/12/21 09:58:33;;;;;;;5.00;2.10;;;9.20;99.90;;;;;;5058440;28;20407;-88
2020/12/21 10:00:58;;;;;;;6.67;2.40;;;9.30;99.90;;;;;;5061016;28;20932;-85
2020/12/21 10:03:24;;;;;;;8.00;2.73;;;9.40;99.90;;;;;;5063636;28;20633;-84
2020/12/21 10:05:49;;;;;;;6.83;2.00;;;9.40;99.90;;;;;;5067312;28;20173;-86
2020/12/21 10:08:15;;;;;;;7.33;2.90;;;9.40;99.90;;;;;;5070188;28;20177;-86
2020/12/21 10:10:41;;;;;;;6.70;2.27;;;9.50;99.90;;;;;;5048422;28;20178;-83
2020/12/21 10:13:06;;;;;;;4.27;2.57;;;9.50;99.90;;;;;;5066563;28;20259;-85
2020/12/21 10:15:32;;;;;;;5.70;2.60;;;9.60;99.90;;;;;;5066925;28;20178;-92
2020/12/21 10:17:57;;;;;;;5.87;2.13;;;9.80;99.90;;;;;;5059504;28;20177;-88
2020/12/21 10:20:23;;;;;;;7.17;3.20;;;9.90;99.90;;;;;;5068018;28;20258;-93
2020/12/21 10:22:48;;;;;;;5.07;2.03;;;10.20;99.90;;;;;;5061533;28;20178;-90
2020/12/21 10:25:14;;;;;;;4.67;2.30;;;10.40;99.90;;;;;;5060226;28;20175;-85
2020/12/21 10:27:40;;;;;;;8.80;2.90;;;10.70;99.90;;;;;;5062460;28;20253;-89
2020/12/21 10:30:05;;;;;;;9.33;2.20;;;10.90;99.90;;;;;;5064074;28;20175;-85
2020/12/21 10:32:31;;;;;;;7.20;2.37;;;11.10;99.90;;;;;;5064848;28;20672;-85
2020/12/21 10:34:56;;;;;;;8.00;2.50;;;10.90;99.90;;;;;;5062014;28;20531;-86
2020/12/21 10:37:22;;;;;;;7.50;2.93;;;11.00;99.90;;;;;;5062805;28;20167;-83
2020/12/21 10:39:48;;;;;;;8.60;2.60;;;11.00;99.90;;;;;;5070525;28;20545;-82
2020/12/21 10:42:14;;;;;;;7.43;2.77;;;10.90;99.90;;;;;;5074352;28;20167;-84
2020/12/21 10:44:39;;;;;;;9.20;3.03;;;10.90;99.90;;;;;;5073956;28;20175;-84
2020/12/21 10:47:05;;;;;;;12.20;3.20;;;11.10;99.90;;;;;;5073569;28;20172;-84
2020/12/21 10:49:30;;;;;;;5.23;1.90;;;11.30;99.90;;;;;;5056374;28;20172;-82
2020/12/21 10:51:59;;;;;;;8.00;2.10;;;11.70;99.90;;;;;;5073695;28;20201;-82
2020/12/21 10:54:25;;;;;;;5.23;1.70;;;12.50;99.90;;;;;;5075974;28;20246;-85
2020/12/21 10:56:52;;;;;;;7.13;1.80;;;13.10;99.90;;;;;;5080252;28;20485;-82
2020/12/21 10:59:17;;;;;;;3.23;1.90;;;13.10;99.90;;;;;;5080391;28;20619;-82
2020/12/21 11:01:46;;;;;;;7.00;2.70;;;12.70;99.90;;;;;;5069009;28;20421;-82
2020/12/21 11:04:12;;;;;;;5.67;2.33;;;12.50;99.90;;;;;;5043191;28;20584;-82
2020/12/21 11:06:38;;;;;;;6.17;2.97;;;12.90;99.90;;;;;;5061043;28;20405;-82
2020/12/21 11:09:03;;;;;;;4.97;1.90;;;13.60;99.90;;;;;;5062374;28;20426;-81
2020/12/21 11:11:31;;;;;;;6.30;2.20;;;14.20;99.90;;;;;;5060790;28;20179;-82
2020/12/21 11:13:59;;;;;;;6.20;2.33;;;14.50;99.90;;;;;;5060768;28;20466;-82
2020/12/21 11:16:24;;;;;;;5.07;1.80;;;15.30;99.90;;;;;;5062956;28;20454;-82
2020/12/21 11:18:50;;;;;;;7.53;3.13;;;16.00;99.90;;;;;;5061327;28;20428;-82
2020/12/21 11:21:16;;;;;;;5.33;2.03;;;16.40;99.30;;;;;;5059673;28;20179;-83
2020/12/21 11:23:42;;;;;;;5.00;2.00;;;16.70;97.70;;;;;;5065111;28;20179;-83
2020/12/21 11:26:08;;;;;;;4.13;1.60;;;16.70;96.70;;;;;;5063471;28;20429;-83
2020/12/21 11:28:34;;;;;;;4.33;1.90;;;17.00;95.70;;;;;;5065208;28;20660;-83
2020/12/21 11:31:01;;;;;;;5.20;1.73;;;17.20;95.30;;;;;;5066532;28;20451;-83
2020/12/21 11:33:26;;;;;;;3.73;1.43;;;17.70;93.70;;;;;;5066196;28;20599;-82
2020/12/21 11:35:52;;;;;;;5.93;1.90;;;18.10;92.00;;;;;;5064093;28;20492;-83
2020/12/21 11:38:18;;;;;;;7.53;1.60;;;;;;;;;;5065131;28;20530;-82
2020/12/21 11:40:44;;;;;;;8.67;1.73;;;;;;;;;;5072126;28;20230;-84
2020/12/21 11:43:11;;;;;;;5.10;2.43;;;;;;;;;;5067312;28;20417;-83
2020/12/21 11:45:37;;;;;;;8.73;1.43;;;;;;;;;;5064761;28;20406;-84
2020/12/21 11:48:03;;;;;;;6.83;2.37;;;;;;;;;;5065843;28;20521;-84
2020/12/21 11:50:29;;;;;;;8.87;2.53;;;;;;;;;;5063519;28;20407;-83
2020/12/21 11:52:55;;;;;;;5.17;1.73;;;;;;;;;;5069366;28;20547;-85
2020/12/21 11:55:21;;;;;;;8.70;1.80;;;;;;;;;;5064043;28;20491;-83
2020/12/21 11:57:47;;;;;;;3.07;0.90;;;;;;;;;;5065218;28;20428;-84
2020/12/21 12:00:14;;;;;;;5.23;1.47;;;;;;;;;;5066005;28;20413;-83
2020/12/21 12:02:40;;;;;;;4.87;1.60;;;;;;;;;;5062329;28;20450;-83
2020/12/21 12:05:10;;;;;;;3.27;1.53;;;;;;;;;;5062591;28;20426;-86
2020/12/21 12:07:36;;;;;;;5.87;2.40;;;;;;;;;;5059740;28;20445;-83
2020/12/21 12:10:02;;;;;;;7.37;2.30;;;;;;;;;;5063376;28;20458;-83
2020/12/21 12:12:28;;;;;;;4.60;1.33;;;;;;;;;;5061600;28;20487;-82
2020/12/21 12:14:54;;;;;;;8.03;2.70;;;;;;;;;;5062691;28;20919;-83
2020/12/21 12:17:20;;;;;;;4.83;1.43;;;;;;;;;;5062729;28;20454;-84
2020/12/21 12:19:46;;;;;;;1.97;1.37;;;;;;;;;;5063401;28;20410;-83
2020/12/21 12:22:12;;;;;;;5.17;1.93;;;;;;;;;;5064425;28;20408;-82
2020/12/21 12:24:38;;;;;;;4.50;1.50;;;;;;;;;;5061080;28;20489;-82
2020/12/21 12:27:04;;;;;;;6.47;2.10;;;;;;;;;;5064894;28;20433;-82
2020/12/21 12:29:30;;;;;;;6.60;1.73;;;;;;;;;;5063639;28;20999;-82
2020/12/21 12:31:56;;;;;;;5.10;2.03;;;;;;;;;;5062456;28;21173;-86
2020/12/21 12:34:22;;;;;;;5.33;2.27;;;;;;;;;;5067139;28;20419;-89
2020/12/21 12:36:48;;;;;;;5.77;2.40;;;;;;;;;;5065792;28;20411;-90
2020/12/21 12:39:15;;;;;;;5.10;2.07;;;;;;;;;;5071726;28;20412;-85
2020/12/21 12:41:41;;;;;;;4.17;1.73;;;;;;;;;;5062766;28;20416;-83
2020/12/21 12:44:08;;;;;;;4.03;1.80;;;;;;;;;;5062965;28;20427;-82
2020/12/21 12:46:34;;;;;;;5.77;2.17;;;;;;;;;;5065211;28;20405;-83
2020/12/21 12:49:04;;;;;;;4.07;1.37;;;;;;;;;;5063233;28;20414;-83
2020/12/21 12:51:30;;;;;;;7.50;2.23;;;;;;;;;;5064955;28;20887;-85
2020/12/21 12:53:56;;;;;;;6.47;1.93;;;;;;;;;;5060499;28;20413;-91
2020/12/21 12:56:22;;;;;;;5.17;1.37;;;;;;;;;;5066551;28;20412;-91
2020/12/21 12:58:49;;;;;;;7.13;1.77;;;;;;;;;;5068942;28;20913;-94